Vandiver, Alabama
Current Conditions -  °F | °C
As of 8:31 AM on Sunday 23 Nov 2014 (Local Time) from KBHM Reporting Station
Drizzle Drizzle  
Wind Chill: 57°   Ceiling: 700
Heat Index: 57°   Visibility: 2.5mi
Dew Point: 55°   Wind: 12mph
Humidity: 93%   Direction: 100°E
Pressure: 29.88"   Gusts: NA
Location:  33.47°N, 86.51°W
Report Text: KBHM 231431Z 10010KT 2 1/2SM -DZ BR BKN007 OVC011 14/13 A2988 RMK AO2 RAE1358DZB15 P0000 T01390128
Loading
Personal Weather Stations






























Interactive Weather Map New forecast layout! Learn more

10-Day Weather Forecast

Advertisements
Track Severe Weather on mobile